Terminal Aerodrome Forecast
Issued by NWS

Home | Current Version | Previous Version | Text Only | Print | Product List | Glossary On
Versions: 1 2 3 4 5 6 7 8 9 10 11 12 13 14 15 16 17 18 19 20 21 22 23 24
189
FTUS43 KAPX 211131
TAFMBL
TAF
KMBL 211131Z 2112/2212 08007KT 3SM -DZ BR OVC002
     FM211500 12008KT 3SM BR OVC005
     FM212100 13008KT 2SM -DZ BR OVC005
     FM220000 16004KT 3SM -DZ BR OVC003
     FM220300 20004KT 2SM BR SCT010 OVC035
     FM220600 VRB03KT 1SM BR BKN002=

USA.gov is the U.S. government's official web portal to all federal, state and local government web resources and services.